Terminal Aerodrome Forecast
Issued by NWS Houston/Galveston, TX

Home | Current Version | Previous Version | Text Only | Print | Product List | Glossary On
Versions: 1 2 3 4 5 6 7 8 9 10 11 12 13 14 15 16 17 18 19 20 21 22 23 24 25 26 27 28 29 30 31 32 33 34 35 36 37 38 39 40 41 42 43 44
066
FTUS44 KHGX 231739
TAFGLS
TAF
KGLS 231739Z 2318/2418 18012KT P6SM SKC
     FM232100 15012KT P6SM SKC
     FM240900 18004KT 4SM BR BKN007
      TEMPO 2410/2412 2SM BR OVC005
     FM241300 19008KT 4SM BR SCT010
     FM241500 21011KT P6SM SKC=

USA.gov is the U.S. government's official web portal to all federal, state and local government web resources and services.